Time;durP1;ratioP1;P1;durP2;ratioP2;P2;SDS_P1;SDS_P2;PMS_P1;PMS_P2;Temp;Humidity;BMP_temperature;BMP_pressure;BME280_temperature;BME280_humidity;BME280_pressure;Samples;Min_cycle;Max_cycle;Signal;HPM_P1;HPM_P2
2022/08/31 00:04:33;;;;;;;3.95;1.95;;;;;;;23.58;49.93;99613.56;4475780;32;33708;-79
2022/08/31 00:07:02;;;;;;;4.18;1.55;;;;;;;23.71;50.14;99612.72;4476141;32;34060;-80
2022/08/31 00:09:31;;;;;;;2.90;1.42;;;;;;;23.64;50.31;99612.28;4476143;32;33752;-77
2022/08/31 00:12:02;;;;;;;4.20;1.75;;;;;;;23.62;50.29;99614.19;4476205;32;33406;-78
2022/08/31 00:14:31;;;;;;;3.95;1.60;;;;;;;23.52;50.61;99613.97;4481483;32;34402;-79
2022/08/31 00:17:00;;;;;;;3.40;1.45;;;;;;;23.57;50.45;99614.50;4476040;32;34295;-77
2022/08/31 00:19:33;;;;;;;3.45;1.42;;;;;;;23.81;49.95;99609.34;4475845;32;34509;-77
2022/08/31 00:22:02;;;;;;;2.65;1.52;;;;;;;23.67;50.35;99617.34;4475816;32;33513;-76
2022/08/31 00:24:31;;;;;;;2.47;1.35;;;;;;;23.59;50.74;99614.41;4481513;32;33999;-77
2022/08/31 00:26:59;;;;;;;3.30;1.60;;;;;;;23.60;50.76;99616.09;4477061;32;33346;-79
2022/08/31 00:29:29;;;;;;;5.05;1.95;;;;;;;23.53;50.96;99617.44;4475565;32;34174;-78
2022/08/31 00:31:58;;;;;;;2.87;1.50;;;;;;;23.55;50.96;99612.91;4475992;32;32932;-77
2022/08/31 00:34:27;;;;;;;3.05;1.80;;;;;;;23.59;50.91;99606.47;4476347;32;33867;-80
2022/08/31 00:36:56;;;;;;;4.12;1.75;;;;;;;23.43;51.43;99618.06;4484491;31;34573;-79
2022/08/31 00:39:25;;;;;;;4.28;2.78;;;;;;;23.46;51.25;99619.66;4493803;31;34244;-79
2022/08/31 00:41:53;;;;;;;3.15;1.65;;;;;;;23.16;52.18;99622.59;4493736;31;33769;-78
2022/08/31 00:44:22;;;;;;;2.45;1.48;;;;;;;23.06;52.35;99625.00;4492424;31;33606;-79
2022/08/31 00:46:52;;;;;;;3.75;1.67;;;;;;;23.02;52.57;99625.28;4483760;32;33443;-77
2022/08/31 00:49:23;;;;;;;3.78;1.67;;;;;;;22.91;52.98;99628.63;4477660;32;34183;-77
2022/08/31 00:51:53;;;;;;;;;;;;;;;22.84;53.04;99624.69;4478543;32;33513;-77
2022/08/31 00:54:25;;;;;;;3.17;1.50;;;;;;;22.70;53.36;99623.75;4478336;32;33699;-78
2022/08/31 00:56:55;;;;;;;4.45;1.70;;;;;;;22.63;53.46;99626.91;4481896;32;34604;-77
2022/08/31 00:59:24;;;;;;;5.87;2.25;;;;;;;22.85;52.89;99619.25;4482247;32;33506;-78
2022/08/31 01:01:54;;;;;;;3.90;1.70;;;;;;;22.72;53.21;99628.97;4482264;31;34711;-78
2022/08/31 01:04:23;;;;;;;3.28;1.90;;;;;;;22.77;53.17;99629.50;4493012;31;33545;-78
2022/08/31 01:06:52;;;;;;;3.87;1.48;;;;;;;22.63;53.57;99629.53;4493532;31;33453;-78
2022/08/31 01:09:27;;;;;;;4.12;1.77;;;;;;;22.65;53.68;99625.00;4499224;31;33128;-78
2022/08/31 01:11:56;;;;;;;4.32;2.03;;;;;;;22.50;54.21;99640.06;4493914;31;33482;-77
2022/08/31 01:14:25;;;;;;;6.07;2.40;;;;;;;22.61;54.10;99636.72;4493376;31;33991;-78
2022/08/31 01:16:56;;;;;;;2.85;1.75;;;;;;;22.56;54.30;99635.22;4493433;31;33826;-78
2022/08/31 01:19:28;;;;;;;4.85;2.10;;;;;;;22.47;54.60;99632.31;4495077;31;32981;-78
2022/08/31 01:22:04;;;;;;;4.95;2.10;;;;;;;22.42;54.85;99629.09;4499343;31;34597;-78
2022/08/31 01:24:34;;;;;;;3.28;1.65;;;;;;;22.40;55.00;99628.34;4493514;31;34787;-77
2022/08/31 01:27:06;;;;;;;2.40;1.60;;;;;;;22.17;55.44;99633.25;4493328;31;34032;-78
2022/08/31 01:29:36;;;;;;;9.32;2.75;;;;;;;22.30;55.08;99636.00;4493703;31;33038;-78
2022/08/31 01:32:07;;;;;;;3.30;1.60;;;;;;;22.36;55.04;99643.56;4493017;31;33640;-78
2022/08/31 01:34:35;;;;;;;;;;;;;;;22.35;54.92;99647.16;4483326;31;33774;-78
2022/08/31 01:37:04;;;;;;;2.20;1.40;;;;;;;22.25;55.30;99640.75;4482716;31;33585;-78
2022/08/31 01:39:34;;;;;;;4.80;1.98;;;;;;;22.22;55.22;99635.66;4479868;31;33331;-77
2022/08/31 01:42:04;;;;;;;;;;;;;;;21.88;56.34;99643.81;4477869;32;33576;-77
2022/08/31 01:44:33;;;;;;;5.72;2.33;;;;;;;22.14;55.72;99644.03;4482936;32;34853;-77
2022/08/31 01:47:01;;;;;;;3.75;2.08;;;;;;;22.18;55.78;99637.63;4477053;32;34499;-78
2022/08/31 01:49:30;;;;;;;3.50;1.70;;;;;;;21.91;56.32;99642.78;4477401;32;33386;-78
2022/08/31 01:51:59;;;;;;;4.65;2.22;;;;;;;22.26;55.39;99637.16;4477964;31;33527;-79
2022/08/31 01:54:28;;;;;;;4.03;2.17;;;;;;;22.16;55.51;99635.06;4482952;32;33774;-78
2022/08/31 01:57:00;;;;;;;3.33;1.75;;;;;;;22.25;55.17;99638.94;4477067;32;34081;-80
2022/08/31 01:59:30;;;;;;;4.55;1.85;;;;;;;22.14;55.68;99638.75;4477055;32;33177;-78
2022/08/31 02:01:59;;;;;;;4.22;1.95;;;;;;;22.11;55.71;99639.78;4483480;31;34233;-77
2022/08/31 02:04:29;;;;;;;4.47;1.70;;;;;;;22.15;55.44;99635.16;4484929;31;33714;-79
2022/08/31 02:06:59;;;;;;;3.70;1.83;;;;;;;22.18;55.17;99640.25;4483178;32;33523;-78
2022/08/31 02:09:29;;;;;;;2.70;1.60;;;;;;;22.09;55.32;99641.66;4491516;31;32864;-80
2022/08/31 02:12:00;;;;;;;3.33;2.33;;;;;;;22.08;54.64;99633.81;4493512;31;32773;-78
2022/08/31 02:14:29;;;;;;;4.85;1.98;;;;;;;22.00;55.07;99633.47;4492757;31;33246;-79
2022/08/31 02:16:58;;;;;;;1.95;1.33;;;;;;;22.06;55.09;99636.56;4498161;31;33718;-77
2022/08/31 02:19:27;;;;;;;3.72;1.70;;;;;;;22.17;54.85;99638.53;4492619;31;33455;-78
2022/08/31 02:21:56;;;;;;;5.95;2.37;;;;;;;22.09;55.37;99636.38;4493406;31;34037;-79
2022/08/31 02:24:25;;;;;;;5.53;2.03;;;;;;;22.06;55.53;99631.28;4491703;31;34079;-77
2022/08/31 02:26:56;;;;;;;3.75;1.75;;;;;;;22.05;55.67;99628.75;4485381;31;33668;-77
2022/08/31 02:29:27;;;;;;;3.65;1.87;;;;;;;22.01;55.93;99630.72;4498718;31;32880;-79
2022/08/31 02:31:57;;;;;;;;;;;;;;;21.90;56.28;99627.87;4493585;31;34211;-79
2022/08/31 02:34:26;;;;;;;3.20;1.67;;;;;;;21.75;56.57;99624.41;4491765;31;33792;-80
2022/08/31 02:36:55;;;;;;;3.62;1.60;;;;;;;21.82;56.38;99620.44;4493205;31;33309;-79
2022/08/31 02:39:24;;;;;;;2.45;1.40;;;;;;;21.86;56.30;99624.56;4498543;31;32990;-77
2022/08/31 02:41:55;;;;;;;4.32;1.70;;;;;;;21.88;55.91;99621.84;4488628;31;33787;-79
2022/08/31 02:44:26;;;;;;;7.40;2.05;;;;;;;21.86;55.26;99624.56;4477108;32;34341;-77
2022/08/31 02:46:56;;;;;;;3.53;1.60;;;;;;;21.80;55.14;99635.53;4476836;32;33811;-77
2022/08/31 02:49:26;;;;;;;;;;;;;;;21.93;54.00;99630.34;4483145;32;33433;-80
2022/08/31 02:51:55;;;;;;;2.12;1.40;;;;;;;21.86;54.25;99623.72;4481410;32;35046;-80
2022/08/31 02:54:23;;;;;;;3.70;2.00;;;;;;;21.82;54.38;99622.22;4477090;32;33659;-77
2022/08/31 02:56:52;;;;;;;3.67;1.52;;;;;;;21.60;55.03;99620.87;4476741;32;34257;-79
2022/08/31 02:59:21;;;;;;;3.10;1.60;;;;;;;21.63;54.81;99617.22;4476162;31;33420;-80
2022/08/31 03:01:54;;;;;;;2.80;1.70;;;;;;;21.84;54.23;99617.69;4487346;31;34302;-77
2022/08/31 03:04:25;;;;;;;4.60;1.77;;;;;;;21.57;55.04;99617.56;4492776;31;34716;-80
2022/08/31 03:06:54;;;;;;;3.92;1.80;;;;;;;21.63;55.38;99625.97;4494006;31;34371;-77
2022/08/31 03:09:23;;;;;;;6.50;2.33;;;;;;;21.71;55.80;99629.00;4492879;31;33078;-80
2022/08/31 03:11:52;;;;;;;3.65;2.03;;;;;;;21.55;56.22;99630.84;4498418;31;33091;-78
2022/08/31 03:14:21;;;;;;;3.12;1.73;;;;;;;21.47;56.64;99625.19;4495515;31;33685;-78
2022/08/31 03:16:52;;;;;;;3.53;1.65;;;;;;;21.55;56.73;99625.56;4490342;31;33371;-77
2022/08/31 03:19:21;;;;;;;2.87;1.52;;;;;;;21.40;57.25;99629.97;4492580;31;33361;-78
2022/08/31 03:21:51;;;;;;;4.28;1.85;;;;;;;21.47;57.26;99626.03;4492778;31;33847;-78
2022/08/31 03:24:24;;;;;;;4.10;1.92;;;;;;;21.60;57.02;99620.87;4496953;31;34489;-78
2022/08/31 03:26:55;;;;;;;2.70;1.65;;;;;;;21.53;57.44;99627.47;4487437;31;34466;-80
2022/08/31 03:29:24;;;;;;;5.18;2.17;;;;;;;21.35;57.87;99620.59;4476799;31;33483;-78
2022/08/31 03:31:54;;;;;;;4.10;2.15;;;;;;;21.35;57.98;99617.97;4476988;32;33564;-78
2022/08/31 03:34:24;;;;;;;3.47;1.85;;;;;;;21.55;57.35;99624.72;4482294;31;34738;-80
2022/08/31 03:36:54;;;;;;;2.50;1.65;;;;;;;21.18;58.17;99625.06;4482846;31;35658;-77
2022/08/31 03:39:23;;;;;;;2.28;1.45;;;;;;;21.46;57.21;99629.63;4492782;31;32300;-78
2022/08/31 03:41:52;;;;;;;4.90;3.00;;;;;;;21.34;57.48;99632.12;4492216;31;33692;-77
2022/08/31 03:44:22;;;;;;;2.75;1.48;;;;;;;21.13;57.72;99632.41;4492273;31;34019;-78
2022/08/31 03:46:54;;;;;;;4.65;1.80;;;;;;;21.25;57.22;99623.78;4497914;31;32771;-80
2022/08/31 03:49:24;;;;;;;5.12;1.92;;;;;;;21.15;57.58;99624.41;4491085;31;33084;-78
2022/08/31 03:51:56;;;;;;;3.30;1.60;;;;;;;21.30;56.95;99624.34;4476697;32;33139;-78
2022/08/31 03:54:25;;;;;;;3.72;1.65;;;;;;;21.14;57.54;99627.97;4476838;32;33291;-78
2022/08/31 03:56:54;;;;;;;3.90;1.92;;;;;;;21.07;57.44;99624.84;4482115;32;33679;-78
2022/08/31 03:59:23;;;;;;;2.97;1.70;;;;;;;21.23;56.97;99620.37;4477689;32;33022;-77
2022/08/31 04:01:57;;;;;;;3.05;1.77;;;;;;;21.17;56.96;99626.03;4481744;31;32453;-78
2022/08/31 04:04:42;;;;;;;5.53;1.85;;;;;;;21.26;56.73;99614.06;4492667;31;33199;-78
2022/08/31 04:07:17;;;;;;;2.85;1.83;;;;;;;21.19;56.78;99624.16;4485638;31;32479;-79
2022/08/31 04:10:00;;;;;;;3.00;1.58;;;;;;;20.99;57.48;99630.53;4476407;32;33270;-77
2022/08/31 04:12:33;;;;;;;2.72;1.33;;;;;;;20.98;57.36;99631.50;4483917;32;33166;-79
2022/08/31 04:15:05;;;;;;;3.37;1.83;;;;;;;21.08;57.21;99634.47;4478449;32;34820;-78
2022/08/31 04:17:37;;;;;;;2.50;1.80;;;;;;;21.06;56.75;99631.91;4478171;32;32005;-78
2022/08/31 04:20:14;;;;;;;2.85;1.48;;;;;;;21.12;56.58;99632.47;4478471;32;33526;-77
2022/08/31 04:22:44;;;;;;;4.00;1.70;;;;;;;21.04;56.75;99630.28;4480861;32;34638;-77
2022/08/31 04:25:14;;;;;;;3.72;1.77;;;;;;;21.09;56.56;99630.88;4483982;31;33871;-77
2022/08/31 04:27:49;;;;;;;3.55;1.60;;;;;;;21.06;56.54;99631.91;4488614;31;34524;-78
2022/08/31 04:30:20;;;;;;;2.95;1.70;;;;;;;20.94;56.93;99635.25;4493832;31;33044;-77
2022/08/31 04:32:50;;;;;;;2.80;1.58;;;;;;;20.94;56.78;99634.41;4493845;31;33041;-78
2022/08/31 04:35:19;;;;;;;2.72;1.58;;;;;;;20.95;56.94;99626.41;4499258;31;34069;-79
2022/08/31 04:37:49;;;;;;;3.08;1.65;;;;;;;21.06;56.74;99628.41;4489668;31;34384;-78
2022/08/31 04:40:19;;;;;;;3.25;2.03;;;;;;;21.12;56.69;99628.09;4477984;31;32438;-78
2022/08/31 04:42:53;;;;;;;4.03;2.20;;;;;;;21.09;56.84;99633.50;4478030;32;33481;-77
2022/08/31 04:45:22;;;;;;;4.45;1.62;;;;;;;21.16;56.74;99629.56;4478173;32;33709;-78
2022/08/31 04:47:51;;;;;;;2.17;1.42;;;;;;;21.07;57.09;99636.25;4483000;32;33631;-80
2022/08/31 04:50:21;;;;;;;2.92;1.75;;;;;;;21.12;56.83;99630.72;4477849;32;33988;-79
2022/08/31 04:52:56;;;;;;;2.75;1.48;;;;;;;21.20;56.79;99635.53;4477736;32;34309;-77
2022/08/31 04:55:32;;;;;;;3.30;1.70;;;;;;;21.38;56.14;99637.09;4478061;32;34754;-79
2022/08/31 04:58:00;;;;;;;4.30;2.20;;;;;;;21.41;56.63;99644.88;4483724;31;33740;-80
2022/08/31 05:00:29;;;;;;;3.58;1.67;;;;;;;21.39;56.76;99636.19;4482319;32;33659;-78
2022/08/31 05:02:59;;;;;;;3.10;2.00;;;;;;;21.46;56.94;99636.69;4490180;31;33705;-78
2022/08/31 05:05:28;;;;;;;3.75;1.73;;;;;;;21.53;56.83;99635.41;4493921;31;33530;-77
2022/08/31 05:07:58;;;;;;;3.28;1.95;;;;;;;21.55;57.22;99636.13;4492398;31;33488;-80
2022/08/31 05:10:27;;;;;;;4.35;1.90;;;;;;;21.74;56.97;99639.38;4483523;32;32748;-79
2022/08/31 05:12:55;;;;;;;3.78;2.00;;;;;;;21.68;57.16;99641.53;4477575;32;33423;-77
2022/08/31 05:15:24;;;;;;;3.12;1.83;;;;;;;21.76;57.33;99641.06;4478283;31;34774;-80
2022/08/31 05:17:53;;;;;;;2.35;1.40;;;;;;;21.81;56.96;99641.66;4477876;32;34295;-79
2022/08/31 05:20:22;;;;;;;5.12;2.12;;;;;;;21.88;57.31;99648.25;4483664;32;32901;-78
2022/08/31 05:22:50;;;;;;;3.90;1.65;;;;;;;21.92;56.83;99647.12;4477160;32;33432;-80
2022/08/31 05:25:21;;;;;;;1.85;1.02;;;;;;;21.96;56.42;99646.00;4477598;32;33726;-78
2022/08/31 05:27:49;;;;;;;3.12;1.77;;;;;;;22.12;56.09;99643.25;4488188;31;36338;-78
2022/08/31 05:30:22;;;;;;;4.50;2.05;;;;;;;22.15;55.95;99649.19;4493246;31;33984;-81
2022/08/31 05:32:51;;;;;;;3.17;1.35;;;;;;;22.42;55.18;99650.25;4488366;31;34359;-77
2022/08/31 05:35:20;;;;;;;3.20;1.60;;;;;;;22.76;54.11;99646.31;4477579;32;34702;-78
2022/08/31 05:37:50;;;;;;;2.90;1.37;;;;;;;23.28;51.39;99645.59;4486054;31;34401;-79
2022/08/31 05:40:21;;;;;;;3.50;1.55;;;;;;;23.99;49.19;99652.28;4493563;31;34002;-78
2022/08/31 05:42:50;;;;;;;3.78;1.50;;;;;;;24.22;48.39;99647.16;4498880;31;33672;-77
2022/08/31 05:45:19;;;;;;;2.17;1.60;;;;;;;24.01;48.09;99647.69;4492775;31;33772;-80
2022/08/31 05:47:48;;;;;;;3.15;1.75;;;;;;;23.92;48.86;99644.84;4494513;31;33722;-79
2022/08/31 05:50:18;;;;;;;4.43;2.37;;;;;;;23.41;50.02;99643.81;4479795;31;33286;-79
2022/08/31 05:52:46;;;;;;;4.57;1.67;;;;;;;23.45;49.67;99646.25;4478093;32;33693;-78
2022/08/31 05:55:15;;;;;;;3.15;1.50;;;;;;;23.47;49.85;99647.84;4482839;32;33833;-80
2022/08/31 05:57:46;;;;;;;4.05;1.87;;;;;;;23.43;50.68;99649.00;4477064;32;33876;-80
2022/08/31 06:00:16;;;;;;;3.62;2.10;;;;;;;23.48;50.60;99651.34;4477543;32;32895;-77
2022/08/31 06:02:45;;;;;;;3.55;1.83;;;;;;;23.52;50.55;99642.25;4488346;31;33857;-77
2022/08/31 06:05:17;;;;;;;5.93;2.22;;;;;;;23.62;50.76;99648.59;4498574;31;34742;-80
2022/08/31 06:07:49;;;;;;;1.95;1.40;;;;;;;23.64;50.43;99647.56;4477290;32;34728;-79
2022/08/31 06:10:20;;;;;;;3.53;1.77;;;;;;;23.93;49.95;99655.34;4477451;32;34725;-80
2022/08/31 06:12:50;;;;;;;3.70;2.00;;;;;;;23.55;50.65;99655.28;4477177;32;33919;-78
2022/08/31 06:15:19;;;;;;;4.20;2.10;;;;;;;23.81;49.93;99662.31;4478497;32;33571;-78
2022/08/31 06:17:48;;;;;;;3.90;1.85;;;;;;;23.67;50.29;99664.19;4482725;32;33334;-79
2022/08/31 06:20:20;;;;;;;4.60;1.85;;;;;;;23.97;49.27;99662.12;4477435;32;33239;-77
2022/08/31 06:22:49;;;;;;;3.40;1.70;;;;;;;23.97;50.02;99664.78;4477116;32;33394;-80
2022/08/31 06:25:19;;;;;;;4.43;1.90;;;;;;;23.99;49.50;99664.66;4477369;32;34385;-78
2022/08/31 06:27:49;;;;;;;5.68;1.92;;;;;;;24.03;49.07;99666.16;4482660;32;33967;-78
2022/08/31 06:30:20;;;;;;;4.20;1.90;;;;;;;24.19;48.08;99672.09;4477209;32;33106;-79
2022/08/31 06:32:50;;;;;;;3.12;1.52;;;;;;;23.94;48.58;99662.31;4475592;32;33141;-80
2022/08/31 06:35:26;;;;;;;2.30;1.42;;;;;;;23.84;48.05;99666.56;4477522;32;33563;-77
2022/08/31 06:37:56;;;;;;;3.10;1.80;;;;;;;24.12;46.37;99664.66;4486156;31;33574;-77
2022/08/31 06:40:25;;;;;;;4.15;2.00;;;;;;;24.41;46.39;99662.62;4487111;31;33127;-79
2022/08/31 06:42:56;;;;;;;3.00;1.55;;;;;;;24.55;45.95;99664.28;4477321;32;33655;-79
2022/08/31 06:45:27;;;;;;;4.72;2.20;;;;;;;24.32;46.67;99665.91;4477776;32;33691;-77
2022/08/31 06:47:57;;;;;;;2.87;1.45;;;;;;;24.43;45.04;99663.34;4477626;32;33517;-77
2022/08/31 06:50:27;;;;;;;2.97;1.52;;;;;;;24.32;46.13;99666.75;4484642;31;33607;-78
2022/08/31 06:52:56;;;;;;;3.37;1.52;;;;;;;24.32;45.38;99665.91;4476938;32;33652;-80
2022/08/31 06:55:25;;;;;;;5.20;2.20;;;;;;;24.41;45.28;99666.09;4482213;31;33702;-78
2022/08/31 06:57:56;;;;;;;3.72;1.73;;;;;;;24.53;44.78;99672.38;4480855;31;34379;-77
2022/08/31 07:00:27;;;;;;;4.45;1.60;;;;;;;24.40;44.92;99663.56;4477015;31;33961;-78
2022/08/31 07:02:56;;;;;;;5.03;1.98;;;;;;;24.59;44.17;99673.72;4494534;31;33889;-78
2022/08/31 07:05:25;;;;;;;3.37;1.62;;;;;;;24.38;44.15;99681.37;4492809;31;33548;-78
2022/08/31 07:07:55;;;;;;;3.97;1.92;;;;;;;24.87;42.96;99676.09;4492309;31;33642;-79
2022/08/31 07:10:25;;;;;;;;;;;;;;;24.59;44.47;99684.34;4493043;31;33035;-79
2022/08/31 07:12:56;;;;;;;2.65;1.58;;;;;;;24.85;43.50;99679.81;4497907;31;34482;-78
2022/08/31 07:15:24;;;;;;;2.83;1.30;;;;;;;24.70;44.09;99682.63;4491791;31;35197;-80
2022/08/31 07:17:53;;;;;;;5.62;1.77;;;;;;;24.73;44.33;99688.66;4491032;31;33432;-78
2022/08/31 07:20:22;;;;;;;2.85;1.77;;;;;;;24.55;44.20;99683.72;4476839;32;33544;-79
2022/08/31 07:22:51;;;;;;;2.92;1.45;;;;;;;25.08;43.15;99683.44;4476930;32;33772;-79
2022/08/31 07:25:21;;;;;;;4.30;1.73;;;;;;;24.83;44.37;99690.53;4482672;32;32846;-79
2022/08/31 07:27:54;;;;;;;3.17;1.75;;;;;;;25.08;44.09;99683.44;4484964;31;33629;-78
2022/08/31 07:30:25;;;;;;;4.12;1.75;;;;;;;24.87;44.57;99689.34;4476357;32;33168;-79
2022/08/31 07:33:04;;;;;;;5.40;1.92;;;;;;;24.81;44.22;99688.94;4476955;32;33852;-80
2022/08/31 07:35:34;;;;;;;3.28;1.60;;;;;;;24.92;43.87;99686.38;4482423;32;34831;-80
2022/08/31 07:43:37;;;;;;;2.92;1.45;;;;;;;24.92;44.33;99697.00;4492343;31;33622;-79
2022/08/31 07:46:08;;;;;;;3.05;1.45;;;;;;;25.19;43.28;99680.87;4491928;31;33479;-78
2022/08/31 07:48:37;;;;;;;4.12;1.87;;;;;;;25.41;42.81;99679.28;4485213;31;33651;-80
2022/08/31 07:51:07;;;;;;;2.55;1.40;;;;;;;25.62;41.79;99676.81;4493482;31;33056;-78
2022/08/31 07:53:46;;;;;;;3.22;1.35;;;;;;;25.57;42.94;99676.31;4494084;31;33469;-79
2022/08/31 07:56:16;;;;;;;3.42;1.50;;;;;;;25.36;43.47;99676.94;4492468;31;33837;-78
2022/08/31 07:58:46;;;;;;;2.17;1.17;;;;;;;25.47;42.58;99677.00;4493310;31;33705;-78
2022/08/31 08:01:18;;;;;;;2.45;1.73;;;;;;;25.53;41.85;99676.53;4497920;31;33154;-80
2022/08/31 08:03:47;;;;;;;3.80;1.70;;;;;;;25.54;41.57;99672.09;4497304;31;33807;-79
2022/08/31 08:06:27;;;;;;;4.37;1.77;;;;;;;25.61;41.60;99673.28;4478399;31;33894;-78
2022/08/31 08:09:05;;;;;;;3.75;1.87;;;;;;;25.98;40.86;99675.00;4476150;32;34061;-79
2022/08/31 08:11:56;;;;;;;3.25;1.80;;;;;;;25.89;40.89;99677.38;4476344;32;33578;-77
2022/08/31 08:14:29;;;;;;;3.83;1.95;;;;;;;25.70;41.33;99669.09;4476163;32;34556;-80
2022/08/31 08:17:00;;;;;;;2.47;1.10;;;;;;;26.19;39.73;99673.28;4481748;32;33745;-79
2022/08/31 08:19:29;;;;;;;2.80;1.15;;;;;;;26.11;39.68;99660.59;4474247;32;33750;-79
2022/08/31 08:21:58;;;;;;;3.20;1.60;;;;;;;26.20;38.90;99663.53;4476378;31;32986;-78
2022/08/31 08:24:30;;;;;;;2.92;1.50;;;;;;;26.30;38.45;99667.97;4475943;32;33504;-79
2022/08/31 08:27:00;;;;;;;3.42;1.70;;;;;;;26.13;38.40;99657.81;4483487;31;34431;-78
2022/08/31 08:29:31;;;;;;;3.03;1.20;;;;;;;26.24;38.61;99660.50;4482791;31;33876;-79
2022/08/31 08:32:03;;;;;;;5.53;1.42;;;;;;;26.01;38.80;99661.44;4483602;31;33720;-79
2022/08/31 08:34:32;;;;;;;2.70;1.50;;;;;;;26.27;38.72;99657.59;4478053;31;33343;-78
2022/08/31 08:37:02;;;;;;;2.33;1.15;;;;;;;26.37;38.47;99655.03;4476246;31;34091;-79
2022/08/31 08:39:30;;;;;;;2.85;1.15;;;;;;;26.34;37.65;99649.97;4481003;31;33387;-80
2022/08/31 08:41:59;;;;;;;2.65;1.20;;;;;;;26.31;38.21;99659.06;4490506;31;33356;-81
2022/08/31 08:44:31;;;;;;;2.85;1.15;;;;;;;25.94;38.12;99650.44;4490401;31;34336;-80
2022/08/31 08:47:06;;;;;;;3.67;2.40;;;;;;;25.87;38.28;99649.22;4482026;31;33752;-78
2022/08/31 08:49:40;;;;;;;2.80;1.27;;;;;;;26.59;37.38;99644.41;4475711;32;33892;-81
2022/08/31 08:52:12;;;;;;;3.03;1.75;;;;;;;26.32;37.57;99652.75;4481515;32;33440;-79
2022/08/31 08:54:45;;;;;;;2.65;1.35;;;;;;;26.14;38.60;99655.06;4475531;32;33971;-81
2022/08/31 08:57:21;;;;;;;3.22;1.48;;;;;;;26.56;37.86;99643.81;4476750;32;33647;-79
2022/08/31 08:59:52;;;;;;;3.58;1.40;;;;;;;26.95;37.10;99646.88;4478079;32;33590;-79
2022/08/31 09:02:26;;;;;;;4.00;1.35;;;;;;;27.12;36.55;99651.63;4486368;31;32248;-80
2022/08/31 09:05:20;;;;;;;2.55;1.70;;;;;;;27.14;36.76;99639.03;4483311;32;33824;-80
2022/08/31 09:08:00;;;;;;;2.17;1.30;;;;;;;27.02;36.29;99640.06;4477452;31;34732;-79
2022/08/31 09:10:33;;;;;;;3.15;1.77;;;;;;;26.70;36.80;99645.34;4476752;31;33775;-81
2022/08/31 09:13:12;;;;;;;2.75;1.33;;;;;;;27.06;36.19;99635.31;4482250;31;33349;-77
2022/08/31 09:15:51;;;;;;;3.95;1.42;;;;;;;27.20;36.24;99633.22;4493871;31;33596;-80
2022/08/31 09:18:31;;;;;;;3.12;1.35;;;;;;;27.26;35.12;99631.88;4499430;31;33671;-79
2022/08/31 09:21:07;;;;;;;3.67;1.60;;;;;;;27.31;35.91;99626.16;4493027;31;33651;-81
2022/08/31 09:23:39;;;;;;;3.78;1.20;;;;;;;27.13;35.96;99626.69;4479219;31;33010;-78
2022/08/31 09:26:15;;;;;;;1.77;1.05;;;;;;;27.07;36.23;99619.22;4484640;31;34498;-78
2022/08/31 09:28:47;;;;;;;4.60;1.62;;;;;;;26.71;36.26;99615.94;4476216;31;34362;-80
2022/08/31 09:31:33;;;;;;;2.90;1.52;;;;;;;27.45;34.96;99618.69;4495671;31;33774;-80
2022/08/31 09:34:05;;;;;;;2.10;1.20;;;;;;;27.63;34.37;99618.94;4497089;31;33218;-80
2022/08/31 09:36:39;;;;;;;2.65;1.10;;;;;;;27.55;34.99;99604.59;4488951;31;34744;-79
2022/08/31 09:39:16;;;;;;;4.25;1.37;;;;;;;27.71;34.87;99604.94;4493141;31;33882;-80
2022/08/31 09:41:46;;;;;;;8.30;1.90;;;;;;;27.91;33.77;99600.62;4493032;31;34852;-80
2022/08/31 09:44:25;;;;;;;1.50;1.15;;;;;;;27.77;34.56;99609.78;4487924;31;33299;-78
2022/08/31 09:46:59;;;;;;;2.53;1.58;;;;;;;27.79;34.23;99607.81;4494872;31;33791;-78
2022/08/31 09:49:32;;;;;;;2.30;1.20;;;;;;;27.79;33.76;99599.00;4489251;31;33771;-77
2022/08/31 09:55:12;;;;;;;4.87;1.52;;;;;;;27.41;34.38;99603.09;4490352;31;33666;-79
2022/08/31 09:55:20;;;;;;;3.37;1.70;;;;;;;27.87;32.99;99594.69;4490801;31;34239;-78
2022/08/31 09:57:56;;;;;;;4.93;1.85;;;;;;;28.02;33.16;99595.16;4490063;31;34599;-79
2022/08/31 10:00:35;;;;;;;3.58;1.20;;;;;;;27.75;33.57;99597.56;4488096;31;34378;-80
2022/08/31 10:03:12;;;;;;;2.70;1.37;;;;;;;28.18;33.60;99586.69;4489268;31;33601;-78
2022/08/31 10:05:43;;;;;;;2.08;1.20;;;;;;;28.13;33.14;99588.06;4477179;32;33079;-78
2022/08/31 10:08:34;;;;;;;2.08;1.10;;;;;;;28.09;33.87;99588.31;4477026;32;34011;-79
2022/08/31 10:11:09;;;;;;;3.55;1.27;;;;;;;27.71;34.49;99588.13;4477378;32;34729;-79
2022/08/31 10:13:39;;;;;;;2.45;1.27;;;;;;;28.18;34.13;99585.84;4477411;32;33774;-80
2022/08/31 10:16:25;;;;;;;2.63;1.30;;;;;;;28.25;33.81;99589.66;4482459;32;33082;-79
2022/08/31 10:18:59;;;;;;;3.03;1.27;;;;;;;28.40;33.12;99579.44;4482614;32;34557;-78
2022/08/31 10:21:37;;;;;;;2.62;1.33;;;;;;;28.38;32.65;99581.41;4476442;32;34333;-79
2022/08/31 10:24:19;;;;;;;1.90;1.08;;;;;;;28.27;32.54;99574.34;4477398;32;33994;-79
2022/08/31 10:26:52;;;;;;;2.67;1.08;;;;;;;29.24;30.24;99566.47;4485894;31;33281;-78
2022/08/31 10:29:29;;;;;;;3.15;1.25;;;;;;;29.16;32.05;99563.62;4492869;31;34881;-79
2022/08/31 10:32:00;;;;;;;2.55;1.02;;;;;;;29.25;31.70;99570.81;4498314;31;33713;-79
2022/08/31 10:37:24;;;;;;;3.83;1.58;;;;;;;29.20;31.29;99553.53;4487223;31;33312;-80
2022/08/31 10:39:56;;;;;;;2.70;1.30;;;;;;;29.60;30.00;99561.31;4493272;31;34348;-78
2022/08/31 10:42:28;;;;;;;2.55;1.27;;;;;;;29.42;30.50;99549.69;4492560;31;34552;-78
2022/08/31 10:45:02;;;;;;;2.83;1.23;;;;;;;29.30;30.87;99546.34;4487653;31;34133;-79
2022/08/31 10:47:40;;;;;;;2.28;1.33;;;;;;;28.88;31.28;99538.63;4477113;32;33936;-79
2022/08/31 10:50:11;;;;;;;4.15;1.35;;;;;;;29.02;31.23;99535.53;4476758;32;33669;-78
2022/08/31 10:52:50;;;;;;;2.55;1.05;;;;;;;29.44;31.35;99547.72;4486433;31;33729;-80
2022/08/31 10:55:28;;;;;;;1.65;1.00;;;;;;;29.48;31.12;99541.06;4477248;31;33404;-79
2022/08/31 10:58:01;;;;;;;2.00;0.90;;;;;;;29.49;31.46;99546.28;4480718;31;33171;-78
2022/08/31 11:00:44;;;;;;;3.05;1.40;;;;;;;29.91;30.63;99531.66;4490402;31;34351;-78
2022/08/31 11:03:17;;;;;;;3.03;1.30;;;;;;;29.93;29.43;99537.69;4489690;31;33524;-78
2022/08/31 11:05:52;;;;;;;1.27;1.05;;;;;;;29.67;30.46;99543.75;4482981;31;34067;-78
2022/08/31 11:08:38;;;;;;;3.00;1.40;;;;;;;29.93;29.57;99533.19;4482436;31;33790;-77
2022/08/31 11:11:08;;;;;;;3.05;1.42;;;;;;;29.86;29.38;99529.41;4481401;31;33728;-77
2022/08/31 11:13:50;;;;;;;3.30;2.05;;;;;;;29.96;29.41;99532.03;4488544;31;33249;-78
2022/08/31 11:16:32;;;;;;;3.45;1.17;;;;;;;30.13;29.04;99528.59;4483240;31;33666;-79
2022/08/31 11:19:24;;;;;;;2.67;1.10;;;;;;;30.20;30.27;99518.09;4477979;31;32765;-81
2022/08/31 11:22:04;;;;;;;2.40;1.35;;;;;;;30.35;29.40;99515.81;4482023;31;34667;-80
2022/08/31 11:25:07;;;;;;;2.78;1.17;;;;;;;29.94;29.92;99516.16;4477115;32;33602;-80
2022/08/31 11:27:39;;;;;;;3.80;1.30;;;;;;;30.18;29.09;99510.25;4474056;31;33934;-80
2022/08/31 11:30:22;;;;;;;1.95;1.00;;;;;;;30.30;29.70;99512.72;4481307;31;34179;-79
2022/08/31 11:32:53;;;;;;;2.60;1.40;;;;;;;30.47;29.07;99503.91;4485403;31;32447;-78
2022/08/31 11:35:58;;;;;;;2.62;1.35;;;;;;;30.86;29.30;99505.41;4477735;31;33440;-78
2022/08/31 11:38:56;;;;;;;2.60;1.37;;;;;;;30.50;29.19;99502.75;4482116;31;34256;-80
2022/08/31 11:41:45;;;;;;;2.55;1.17;;;;;;;30.81;28.96;99504.03;4479679;31;33147;-79
2022/08/31 11:44:52;;;;;;;2.12;1.23;;;;;;;30.67;28.25;99493.84;4475687;31;33604;-77
2022/08/31 11:47:45;;;;;;;1.70;0.95;;;;;;;30.97;28.38;99502.50;4475386;31;83162;-78
2022/08/31 11:50:55;;;;;;;2.25;1.20;;;;;;;31.48;28.15;99497.31;4475784;31;32694;-78
2022/08/31 11:53:31;;;;;;;2.80;1.17;;;;;;;31.65;27.81;99493.72;4473691;31;32878;-78
2022/08/31 11:56:03;;;;;;;3.55;1.08;;;;;;;31.86;27.25;99496.81;4480410;32;34295;-80
2022/08/31 11:58:38;;;;;;;1.67;1.10;;;;;;;31.37;28.06;99496.56;4487269;31;33690;-80
2022/08/31 12:01:32;;;;;;;2.45;1.20;;;;;;;31.32;28.05;99500.72;4483829;31;33471;-78
2022/08/31 12:04:03;;;;;;;2.40;1.12;;;;;;;31.42;27.78;99498.81;4475855;31;33427;-78
2022/08/31 12:07:07;;;;;;;2.28;1.20;;;;;;;31.02;28.28;99492.97;4474933;31;34673;-79
2022/08/31 12:10:13;;;;;;;1.65;0.93;;;;;;;31.18;27.69;99494.09;4478485;31;33576;-78
2022/08/31 12:13:08;;;;;;;3.95;1.10;;;;;;;30.83;28.84;99493.16;4475382;32;34293;-77